Annou G.o. — V7UI5 — position and weather

sailwx.info

Track history (hours):
 
Tides and Currents Weather Stations Pressure Air Temp Water Temp Dewpoint Dewpoint Depression Visibility Wind Speed Wind Dir Waves Ship Positions

Annou G.o.

Last reported at 2018-Feb-18 11:58 UTC. Time now 2018-Feb-24 10:12 UTC.
Position N 32°58' E 132°10'.

Length 229 m; draft 7.6 m.

Type: Cargo ship. MMSI: 538003955.

Date/timePositionNaut miles runAvg speedWind from/ knotsBaromVisibWave heightAir tempDewpointWater temp
2018-Feb-18 11:58N 32°58' E 132°10'612.4
2018-Feb-18 11:29N 33°03' E 132°07'612.5
2018-Feb-18 10:59N 33°09' E 132°05'612.5
2018-Feb-18 10:30N 33°14' E 132°00'4 7.9
2018-Feb-18 09:59N 33°18' E 131°59'611.7
2018-Feb-18 09:30N 33°24' E 131°59'713.1
2018-Feb-18 08:58N 33°29' E 132°05'1614.4
2018-Feb-18 07:49N 33°40' E 132°19'614.8
2018-Feb-18 07:26N 33°44' E 132°24'715.2
2018-Feb-18 06:59N 33°49' E 132°30'715.4
2018-Feb-18 06:30N 33°54' E 132°37'815.4
2018-Feb-18 06:00N 33°59' E 132°44'  
2018-Feb-12 02:36N 34°27' E 134°05'310.6
2018-Feb-12 02:21N 34°26' E 134°08'410.7
2018-Feb-12 01:58N 34°25' E 134°13'511.0
2018-Feb-12 01:30N 34°24' E 134°19'610.9
2018-Feb-12 00:59N 34°26' E 134°25'511.3
2018-Feb-12 00:30N 34°28' E 134°31'611.7
2018-Feb-12 00:00N 34°30' E 134°38'611.9
2018-Feb-11 23:30N 34°32' E 134°45'612.6
2018-Feb-11 23:00N 34°35' E 134°52'713.1
2018-Feb-11 22:30N 34°38' E 134°59'612.7
2018-Feb-11 22:00N 34°35' E 135°06'4 9.0
2018-Feb-11 21:30N 34°34' E 135°11'1 2.3
2018-Feb-11 21:00N 34°34' E 135°13'0 0.1
2018-Feb-11 20:29N 34°34' E 135°13'0 0.1
2018-Feb-11 19:59N 34°34' E 135°13'0 0.0
2018-Feb-11 19:29N 34°34' E 135°13'0 0.0
2018-Feb-11 18:59N 34°34' E 135°13'0 0.0
2018-Feb-11 18:30N 34°34' E 135°13'0 0.0
2018-Feb-11 17:59N 34°34' E 135°13'0 0.1
2018-Feb-11 17:29N 34°34' E 135°13'0 0.0
2018-Feb-11 16:59N 34°34' E 135°13'0 0.0
2018-Feb-11 16:29N 34°34' E 135°13'0 0.0
2018-Feb-11 15:59N 34°34' E 135°13'0 0.0
2018-Feb-11 15:29N 34°34' E 135°13'0 0.0
2018-Feb-11 14:59N 34°34' E 135°13'0 0.1
2018-Feb-11 14:29N 34°34' E 135°13'0 0.1
2018-Feb-11 14:00N 34°34' E 135°13'0 0.0
2018-Feb-11 13:29N 34°34' E 135°13'0 0.0
2018-Feb-11 12:59N 34°34' E 135°13'0 0.0
2018-Feb-11 12:29N 34°34' E 135°13'0 0.0
2018-Feb-11 11:59N 34°34' E 135°13'0 0.0
2018-Feb-11 11:29N 34°34' E 135°13'0 0.0
2018-Feb-11 10:59N 34°34' E 135°13'0 0.0
2018-Feb-11 10:29N 34°34' E 135°13'0 0.0
2018-Feb-11 09:59N 34°34' E 135°13'0 0.0
2018-Feb-11 09:29N 34°34' E 135°13'0 0.1
2018-Feb-11 08:59N 34°34' E 135°13'0 0.1
2018-Feb-11 08:29N 34°34' E 135°13'0 0.0
2018-Feb-11 07:59N 34°34' E 135°13'0 0.0
2018-Feb-11 07:29N 34°34' E 135°13'0 0.0
2018-Feb-11 06:59N 34°34' E 135°13'0 0.0
2018-Feb-11 06:29N 34°34' E 135°13'0 0.0
2018-Feb-11 05:59N 34°34' E 135°13'0 0.0
2018-Feb-11 05:29N 34°34' E 135°13'0 0.4
2018-Feb-11 05:00N 34°34' E 135°13'2 3.4
2018-Feb-11 04:30N 34°32' E 135°13'4 8.8
2018-Feb-11 04:01N 34°28' E 135°10'611.8
2018-Feb-11 03:31N 34°24' E 135°06'611.6
2018-Feb-11 03:01N 34°19' E 135°01'510.4
2018-Feb-11 02:30N 34°14' E 134°59'510.4
2018-Feb-11 02:00N 34°09' E 134°60'510.0
2018-Feb-11 01:30N 34°04' E 134°59'510.3
2018-Feb-11 01:00N 33°59' E 134°58'510.1
2018-Feb-11 00:30N 33°54' E 134°57'610.5
2018-Feb-10 23:57N 33°48' E 134°55'  
Track history (hours):
 
Tides and Currents Weather Stations Pressure Air Temp Water Temp Dewpoint Dewpoint Depression Visibility Wind Speed Wind Dir Waves Ship Positions

Annou G.o.

Last reported at 2018-Feb-18 11:58 UTC. Time now 2018-Feb-24 10:12 UTC.
Position N 32°58' E 132°10'.

Length 229 m; draft 7.6 m.

Type: Cargo ship. MMSI: 538003955.

Date/timePositionNaut miles runAvg speedWind from/ knotsBaromVisibWave heightAir tempDewpointWater temp
2018-Feb-18 11:58N 32°58' E 132°10'612.4
2018-Feb-18 11:29N 33°03' E 132°07'612.5
2018-Feb-18 10:59N 33°09' E 132°05'612.5
2018-Feb-18 10:30N 33°14' E 132°00'4 7.9
2018-Feb-18 09:59N 33°18' E 131°59'611.7
2018-Feb-18 09:30N 33°24' E 131°59'713.1
2018-Feb-18 08:58N 33°29' E 132°05'1614.4
2018-Feb-18 07:49N 33°40' E 132°19'614.8
2018-Feb-18 07:26N 33°44' E 132°24'715.2
2018-Feb-18 06:59N 33°49' E 132°30'715.4
2018-Feb-18 06:30N 33°54' E 132°37'815.4
2018-Feb-18 06:00N 33°59' E 132°44'  
2018-Feb-12 02:36N 34°27' E 134°05'310.6
2018-Feb-12 02:21N 34°26' E 134°08'410.7
2018-Feb-12 01:58N 34°25' E 134°13'511.0
2018-Feb-12 01:30N 34°24' E 134°19'610.9
2018-Feb-12 00:59N 34°26' E 134°25'511.3
2018-Feb-12 00:30N 34°28' E 134°31'611.7
2018-Feb-12 00:00N 34°30' E 134°38'611.9
2018-Feb-11 23:30N 34°32' E 134°45'612.6
2018-Feb-11 23:00N 34°35' E 134°52'713.1
2018-Feb-11 22:30N 34°38' E 134°59'612.7
2018-Feb-11 22:00N 34°35' E 135°06'4 9.0
2018-Feb-11 21:30N 34°34' E 135°11'1 2.3
2018-Feb-11 21:00N 34°34' E 135°13'0 0.1
2018-Feb-11 20:29N 34°34' E 135°13'0 0.1
2018-Feb-11 19:59N 34°34' E 135°13'0 0.0
2018-Feb-11 19:29N 34°34' E 135°13'0 0.0
2018-Feb-11 18:59N 34°34' E 135°13'0 0.0
2018-Feb-11 18:30N 34°34' E 135°13'0 0.0
2018-Feb-11 17:59N 34°34' E 135°13'0 0.1
2018-Feb-11 17:29N 34°34' E 135°13'0 0.0
2018-Feb-11 16:59N 34°34' E 135°13'0 0.0
2018-Feb-11 16:29N 34°34' E 135°13'0 0.0
2018-Feb-11 15:59N 34°34' E 135°13'0 0.0
2018-Feb-11 15:29N 34°34' E 135°13'0 0.0
2018-Feb-11 14:59N 34°34' E 135°13'0 0.1
2018-Feb-11 14:29N 34°34' E 135°13'0 0.1
2018-Feb-11 14:00N 34°34' E 135°13'0 0.0
2018-Feb-11 13:29N 34°34' E 135°13'0 0.0
2018-Feb-11 12:59N 34°34' E 135°13'0 0.0
2018-Feb-11 12:29N 34°34' E 135°13'0 0.0
2018-Feb-11 11:59N 34°34' E 135°13'0 0.0
2018-Feb-11 11:29N 34°34' E 135°13'0 0.0
2018-Feb-11 10:59N 34°34' E 135°13'0 0.0
2018-Feb-11 10:29N 34°34' E 135°13'0 0.0
2018-Feb-11 09:59N 34°34' E 135°13'0 0.0
2018-Feb-11 09:29N 34°34' E 135°13'0 0.1
2018-Feb-11 08:59N 34°34' E 135°13'0 0.1
2018-Feb-11 08:29N 34°34' E 135°13'0 0.0
2018-Feb-11 07:59N 34°34' E 135°13'0 0.0
2018-Feb-11 07:29N 34°34' E 135°13'0 0.0
2018-Feb-11 06:59N 34°34' E 135°13'0 0.0
2018-Feb-11 06:29N 34°34' E 135°13'0 0.0
2018-Feb-11 05:59N 34°34' E 135°13'0 0.0
2018-Feb-11 05:29N 34°34' E 135°13'0 0.4
2018-Feb-11 05:00N 34°34' E 135°13'2 3.4
2018-Feb-11 04:30N 34°32' E 135°13'4 8.8
2018-Feb-11 04:01N 34°28' E 135°10'611.8
2018-Feb-11 03:31N 34°24' E 135°06'611.6
2018-Feb-11 03:01N 34°19' E 135°01'510.4
2018-Feb-11 02:30N 34°14' E 134°59'510.4
2018-Feb-11 02:00N 34°09' E 134°60'510.0
2018-Feb-11 01:30N 34°04' E 134°59'510.3
2018-Feb-11 01:00N 33°59' E 134°58'510.1
2018-Feb-11 00:30N 33°54' E 134°57'610.5
2018-Feb-10 23:57N 33°48' E 134°55'  

Dump ship's entire track history